Time;durP1;ratioP1;P1;durP2;ratioP2;P2;SDS_P1;SDS_P2;PMS_P1;PMS_P2;Temp;Humidity;BMP_temperature;BMP_pressure;BME280_temperature;BME280_humidity;BME280_pressure;Samples;Min_cycle;Max_cycle;Signal;HPM_P1;HPM_P2
2024/02/16 00:02:16;;;;;;;15.98;7.72;;;;;;;5.10;100.00;101260.06;5048885;28;20044;-67
2024/02/16 00:04:41;;;;;;;21.98;8.95;;;;;;;5.06;100.00;101258.56;5047657;28;20036;-67
2024/02/16 00:07:07;;;;;;;17.63;8.80;;;;;;;5.06;100.00;101261.16;5048309;28;20040;-66
2024/02/16 00:09:33;;;;;;;23.48;9.02;;;;;;;5.03;100.00;101258.75;5041751;28;20052;-67
2024/02/16 00:11:58;;;;;;;17.25;7.05;;;;;;;5.00;100.00;101255.41;5040257;28;20033;-67
2024/02/16 00:14:24;;;;;;;14.73;6.90;;;;;;;4.97;100.00;101252.19;5036999;28;20033;-67
2024/02/16 00:16:49;;;;;;;13.13;6.80;;;;;;;5.06;100.00;101253.41;5040328;28;20037;-67
2024/02/16 00:19:15;;;;;;;11.27;5.18;;;;;;;5.24;100.00;101252.28;5041248;28;20082;-67
2024/02/16 00:21:42;;;;;;;15.48;5.45;;;;;;;5.47;100.00;101251.75;5047398;28;20501;-67
2024/02/16 00:24:08;;;;;;;5.13;2.38;;;;;;;5.73;100.00;101246.75;5044219;28;20370;-67
2024/02/16 00:26:33;;;;;;;5.07;2.05;;;;;;;5.97;100.00;101253.03;5046006;28;20029;-66
2024/02/16 00:28:59;;;;;;;4.72;1.52;;;;;;;6.13;100.00;101253.72;5038295;28;20051;-67
2024/02/16 00:31:24;;;;;;;6.90;1.70;;;;;;;6.22;100.00;101249.72;5030916;28;20047;-66
2024/02/16 00:33:50;;;;;;;5.47;1.75;;;;;;;6.21;100.00;101248.88;5026489;28;20033;-66
2024/02/16 00:36:15;;;;;;;4.03;1.80;;;;;;;6.14;100.00;101245.03;5027711;28;20520;-68
2024/02/16 00:38:40;;;;;;;5.53;1.83;;;;;;;6.08;100.00;101244.59;5030021;28;21963;-66
2024/02/16 00:41:07;;;;;;;5.03;2.10;;;;;;;6.04;100.00;101243.97;5029278;28;20420;-67
2024/02/16 00:43:32;;;;;;;6.75;2.05;;;;;;;6.07;100.00;101243.78;5025974;28;20041;-67
2024/02/16 00:45:58;;;;;;;4.97;1.83;;;;;;;6.10;100.00;101242.75;5027497;28;20036;-66
2024/02/16 00:48:24;;;;;;;5.32;1.83;;;;;;;6.13;100.00;101240.78;5027582;28;20029;-67
2024/02/16 00:50:49;;;;;;;7.47;1.25;;;;;;;6.15;100.00;101243.25;5034761;28;20041;-67
2024/02/16 00:53:15;;;;;;;6.88;1.70;;;;;;;6.19;100.00;101242.97;5036809;28;20230;-68
2024/02/16 00:55:41;;;;;;;6.22;2.00;;;;;;;6.09;100.00;101236.75;5041697;28;20477;-67
2024/02/16 00:58:07;;;;;;;4.00;2.50;;;;;;;5.93;100.00;101236.88;5038307;28;20025;-67
2024/02/16 01:00:32;;;;;;;4.30;2.42;;;;;;;5.67;100.00;101235.84;5044828;28;20120;-67
2024/02/16 01:02:58;;;;;;;5.57;2.95;;;;;;;5.49;100.00;101237.00;5047063;28;20028;-67
2024/02/16 01:05:24;;;;;;;4.20;2.63;;;;;;;5.28;100.00;101239.09;5046572;28;20063;-67
2024/02/16 01:07:49;;;;;;;8.60;3.55;;;;;;;5.14;100.00;101235.69;5048152;28;20486;-67
2024/02/16 01:10:15;;;;;;;9.50;3.88;;;;;;;5.01;100.00;101225.25;5044760;28;20039;-67
2024/02/16 01:12:40;;;;;;;9.02;3.33;;;;;;;5.09;100.00;101227.41;5050281;28;20128;-67
2024/02/16 01:15:06;;;;;;;5.97;2.97;;;;;;;5.25;100.00;101228.13;5041661;28;20037;-68
2024/02/16 01:17:34;;;;;;;7.75;4.10;;;;;;;5.24;100.00;101229.03;5041157;28;20061;-67
2024/02/16 01:20:00;;;;;;;9.65;3.90;;;;;;;5.07;100.00;101229.25;5049483;28;20036;-68
2024/02/16 01:22:29;;;;;;;6.35;3.35;;;;;;;4.89;100.00;101231.97;5050849;28;20038;-67
2024/02/16 01:24:54;;;;;;;8.27;2.35;;;;;;;4.91;100.00;101237.03;5047344;28;20037;-67
2024/02/16 01:27:21;;;;;;;6.03;2.25;;;;;;;5.07;100.00;101234.41;5045782;28;20422;-67
2024/02/16 01:29:47;;;;;;;5.35;2.58;;;;;;;5.11;100.00;101230.72;5043467;28;20390;-67
2024/02/16 01:32:13;;;;;;;4.65;2.40;;;;;;;5.06;100.00;101233.56;5032550;28;20033;-66
2024/02/16 01:34:39;;;;;;;5.82;2.13;;;;;;;5.15;100.00;101234.78;5029932;28;20207;-66
2024/02/16 01:37:05;;;;;;;3.67;1.95;;;;;;;5.28;100.00;101235.69;5029385;28;20040;-67
2024/02/16 01:39:30;;;;;;;6.32;2.45;;;;;;;5.38;100.00;101234.22;5032999;28;20036;-66
2024/02/16 01:41:56;;;;;;;3.75;1.63;;;;;;;5.35;100.00;101229.25;5030705;28;20116;-67
2024/02/16 01:44:21;;;;;;;5.22;1.95;;;;;;;5.30;100.00;101228.69;5029877;28;20044;-68
2024/02/16 01:46:47;;;;;;;6.95;1.83;;;;;;;5.16;100.00;101229.53;5032118;28;20040;-66
2024/02/16 01:49:14;;;;;;;5.97;3.15;;;;;;;5.23;100.00;101230.78;5029906;28;20037;-68
2024/02/16 01:51:41;;;;;;;6.97;2.28;;;;;;;5.18;100.00;101226.84;5033591;28;20037;-68
2024/02/16 01:54:07;;;;;;;8.18;2.90;;;;;;;5.07;100.00;101229.25;5055751;28;20108;-68
2024/02/16 01:56:32;;;;;;;9.60;3.70;;;;;;;4.96;100.00;101227.28;5049302;28;20240;-67
2024/02/16 01:58:58;;;;;;;11.30;4.15;;;;;;;4.86;100.00;101219.22;5041501;28;20172;-67
2024/02/16 02:01:23;;;;;;;9.07;5.03;;;;;;;4.77;100.00;101222.34;5035350;28;20033;-67
2024/02/16 02:03:49;;;;;;;10.80;5.40;;;;;;;4.70;100.00;101213.31;5024648;28;20071;-68
2024/02/16 02:06:14;;;;;;;12.55;6.32;;;;;;;4.63;100.00;101209.44;5030819;28;20045;-68
2024/02/16 02:08:40;;;;;;;13.95;6.63;;;;;;;4.57;100.00;101209.78;5028142;28;20083;-67
2024/02/16 02:11:05;;;;;;;11.85;5.10;;;;;;;4.47;100.00;101213.78;5034436;28;20102;-67
2024/02/16 02:13:31;;;;;;;12.43;5.25;;;;;;;4.43;100.00;101209.72;5028808;28;20055;-67
2024/02/16 02:15:58;;;;;;;10.95;5.07;;;;;;;4.37;100.00;101207.50;5046608;28;21189;-68
2024/02/16 02:18:24;;;;;;;11.05;5.50;;;;;;;4.27;100.00;101214.91;5030522;28;20033;-68
2024/02/16 02:20:50;;;;;;;9.05;4.15;;;;;;;4.37;100.00;101202.34;5029074;28;20036;-68
2024/02/16 02:23:15;;;;;;;9.00;4.65;;;;;;;4.63;100.00;101205.09;5028864;28;20033;-68
2024/02/16 02:25:41;;;;;;;8.52;4.60;;;;;;;4.70;100.00;101208.16;5036327;28;20505;-67
2024/02/16 02:28:06;;;;;;;11.35;4.22;;;;;;;4.57;100.00;101202.03;5047260;28;20065;-67
2024/02/16 02:30:32;;;;;;;9.82;2.88;;;;;;;4.51;100.00;101204.97;5049865;28;20071;-68
2024/02/16 02:32:57;;;;;;;3.65;1.58;;;;;;;4.88;100.00;101204.47;5048277;28;20040;-67
2024/02/16 02:35:23;;;;;;;3.80;1.63;;;;;;;5.05;100.00;101195.75;5047086;28;20436;-67
2024/02/16 02:37:48;;;;;;;4.55;2.03;;;;;;;5.10;100.00;101182.56;5045838;28;20033;-67
2024/02/16 02:40:14;;;;;;;4.13;1.52;;;;;;;5.11;100.00;101184.22;5050673;28;20037;-67
2024/02/16 02:42:39;;;;;;;3.58;1.65;;;;;;;5.10;100.00;101187.72;5048736;28;20040;-67
2024/02/16 02:45:05;;;;;;;2.85;1.30;;;;;;;5.11;100.00;101181.63;5056401;28;20025;-67
2024/02/16 02:47:32;;;;;;;3.72;1.05;;;;;;;5.18;100.00;101177.78;5034647;28;20049;-67
2024/02/16 02:49:57;;;;;;;2.90;1.05;;;;;;;5.21;100.00;101175.81;5045388;28;20032;-68
2024/02/16 02:52:23;;;;;;;4.20;0.80;;;;;;;5.16;100.00;101179.63;5048120;28;20037;-67
2024/02/16 02:54:48;;;;;;;3.95;2.03;;;;;;;5.12;100.00;101175.56;5043875;28;20025;-67
2024/02/16 02:57:13;;;;;;;4.63;2.35;;;;;;;5.02;100.00;101174.44;5044875;28;20390;-68
2024/02/16 02:59:39;;;;;;;8.25;1.08;;;;;;;5.15;100.00;101175.38;5035854;28;20528;-67
2024/02/16 03:02:04;;;;;;;14.13;1.45;;;;;;;5.28;100.00;101178.84;5029120;28;20040;-67
2024/02/16 03:04:30;;;;;;;8.93;3.88;;;;;;;5.15;100.00;101181.38;5030385;28;20041;-67
2024/02/16 03:06:55;;;;;;;5.95;3.08;;;;;;;5.14;100.00;101174.53;5029833;28;20087;-67
2024/02/16 03:09:22;;;;;;;9.40;3.78;;;;;;;5.13;100.00;101177.22;5027957;28;20043;-67
2024/02/16 03:11:48;;;;;;;10.95;4.50;;;;;;;4.94;100.00;101183.47;5027686;28;20036;-68
2024/02/16 03:14:13;;;;;;;12.27;5.85;;;;;;;4.81;100.00;101177.34;5032074;28;20386;-67
2024/02/16 03:16:39;;;;;;;10.88;5.25;;;;;;;4.72;100.00;101177.94;5027134;28;20540;-68
2024/02/16 03:19:08;;;;;;;9.63;5.85;;;;;;;4.67;100.00;101174.78;5028908;28;20052;-68
2024/02/16 03:21:34;;;;;;;11.27;4.25;;;;;;;4.64;100.00;101174.97;5029723;28;20497;-68
2024/02/16 03:24:00;;;;;;;7.63;1.95;;;;;;;4.81;100.00;101171.38;5028453;28;20283;-67
2024/02/16 03:26:26;;;;;;;6.07;1.77;;;;;;;4.94;100.00;101170.56;5028807;28;20036;-68
2024/02/16 03:28:52;;;;;;;2.78;1.35;;;;;;;5.05;100.00;101167.34;5039314;28;20793;-67
2024/02/16 03:31:22;;;;;;;13.60;1.75;;;;;;;5.20;100.00;101175.94;5028074;28;20391;-67
2024/02/16 03:33:49;;;;;;;9.50;1.52;;;;;;;5.24;100.00;101167.03;5028646;28;20481;-68
2024/02/16 03:36:16;;;;;;;2.40;0.80;;;;;;;5.27;100.00;101170.25;5029991;28;20663;-67
2024/02/16 03:38:46;;;;;;;5.93;2.00;;;;;;;5.16;100.00;101169.28;5027059;28;20086;-68
2024/02/16 03:41:15;;;;;;;8.68;2.97;;;;;;;4.98;100.00;101173.78;5028016;28;20036;-68
2024/02/16 03:43:42;;;;;;;6.63;3.22;;;;;;;4.92;100.00;101177.56;5029747;28;20029;-68
2024/02/16 03:46:08;;;;;;;8.07;4.00;;;;;;;4.83;100.00;101180.69;5028513;28;20033;-68
2024/02/16 03:48:33;;;;;;;7.22;2.47;;;;;;;5.00;100.00;101170.19;5029518;28;20680;-68
2024/02/16 03:50:59;;;;;;;4.40;1.92;;;;;;;5.16;100.00;101177.84;5036983;28;20040;-69
2024/02/16 03:53:24;;;;;;;4.45;1.00;;;;;;;5.24;100.00;101177.38;5034766;28;20102;-68
2024/02/16 03:55:50;;;;;;;3.10;0.93;;;;;;;5.26;100.00;101172.94;5040738;28;20087;-68
2024/02/16 03:58:16;;;;;;;4.07;1.10;;;;;;;5.31;100.00;101179.50;5038912;28;20044;-68
2024/02/16 04:00:42;;;;;;;5.68;1.13;;;;;;;5.31;100.00;101171.75;5035536;28;20054;-68
2024/02/16 04:03:09;;;;;;;10.30;4.10;;;;;;;5.17;100.00;101173.53;5028784;28;20071;-68
2024/02/16 04:05:34;;;;;;;11.30;6.28;;;;;;;4.90;100.00;101176.00;5027246;28;20090;-69
2024/02/16 04:08:02;;;;;;;13.68;7.35;;;;;;;4.73;100.00;101171.81;5026457;28;20494;-68
2024/02/16 04:10:31;;;;;;;12.52;6.03;;;;;;;4.72;100.00;101172.75;5026431;28;20552;-68
2024/02/16 04:12:56;;;;;;;10.48;5.43;;;;;;;4.76;100.00;101173.38;5029536;28;20135;-68
2024/02/16 04:15:22;;;;;;;4.80;2.70;;;;;;;4.78;100.00;101174.97;5029866;28;20033;-68
2024/02/16 04:17:47;;;;;;;3.08;1.55;;;;;;;4.90;100.00;101169.06;5026912;28;20484;-68
2024/02/16 04:20:15;;;;;;;3.05;1.20;;;;;;;5.06;100.00;101178.50;5026825;28;20033;-68
2024/02/16 04:22:41;;;;;;;3.22;1.02;;;;;;;5.21;100.00;101174.97;5036278;28;20043;-68
2024/02/16 04:25:08;;;;;;;1.95;0.57;;;;;;;5.22;100.00;101176.63;5050632;28;20021;-68
2024/02/16 04:27:34;;;;;;;3.47;0.80;;;;;;;5.25;100.00;101172.13;5047013;28;20120;-68
2024/02/16 04:30:00;;;;;;;2.13;0.80;;;;;;;5.26;100.00;101168.59;5045236;28;20212;-68
2024/02/16 04:32:25;;;;;;;3.38;1.02;;;;;;;5.29;100.00;101167.59;5039669;28;20028;-68
2024/02/16 04:34:55;;;;;;;2.97;0.68;;;;;;;5.32;100.00;101164.81;5041343;28;20473;-68
2024/02/16 04:37:21;;;;;;;6.07;0.73;;;;;;;5.35;100.00;101162.06;5046421;28;20048;-68
2024/02/16 04:39:47;;;;;;;3.40;1.13;;;;;;;5.35;100.00;101162.06;5044884;28;20079;-68
2024/02/16 04:42:13;;;;;;;1.67;0.68;;;;;;;5.33;100.00;101163.91;5035791;28;20041;-68
2024/02/16 04:44:39;;;;;;;2.28;0.70;;;;;;;5.40;100.00;101166.94;5052067;28;20119;-68
2024/02/16 04:47:05;;;;;;;1.65;0.73;;;;;;;5.32;100.00;101167.41;5045079;28;20482;-68
2024/02/16 04:49:31;;;;;;;9.15;4.50;;;;;;;5.07;100.00;101167.25;5047998;28;20033;-68
2024/02/16 04:51:56;;;;;;;9.50;3.72;;;;;;;4.96;100.00;101160.97;5046141;28;20087;-68
2024/02/16 04:54:22;;;;;;;4.13;1.33;;;;;;;5.00;100.00;101162.44;5044309;28;20025;-68
2024/02/16 04:56:48;;;;;;;3.75;0.90;;;;;;;5.13;100.00;101166.88;5045386;28;20124;-69
2024/02/16 04:59:14;;;;;;;3.50;0.80;;;;;;;5.12;100.00;101162.63;5053492;28;20029;-69
2024/02/16 05:01:40;;;;;;;2.40;0.60;;;;;;;5.15;100.00;101165.88;5050586;28;20082;-68
2024/02/16 05:04:06;;;;;;;7.10;0.93;;;;;;;5.19;100.00;101158.75;5051437;28;20028;-69
2024/02/16 05:06:32;;;;;;;3.15;1.20;;;;;;;5.13;100.00;101159.13;5050574;28;20040;-68
2024/02/16 05:08:58;;;;;;;2.83;1.27;;;;;;;5.14;100.00;101165.97;5046138;28;20033;-68
2024/02/16 05:11:24;;;;;;;3.08;0.70;;;;;;;5.20;100.00;101165.59;5054588;28;20028;-69
2024/02/16 05:13:50;;;;;;;2.47;0.60;;;;;;;5.23;100.00;101160.22;5044801;28;20099;-68
2024/02/16 05:16:16;;;;;;;3.10;0.70;;;;;;;5.22;100.00;101161.97;5046734;28;20024;-69
2024/02/16 05:18:42;;;;;;;4.18;1.38;;;;;;;5.21;100.00;101155.13;5051641;28;20040;-69
2024/02/16 05:21:09;;;;;;;14.90;6.50;;;;;;;4.87;100.00;101161.50;5043831;28;20033;-68
2024/02/16 05:23:35;;;;;;;17.58;7.95;;;;;;;4.56;100.00;101169.41;5048162;28;20053;-68
2024/02/16 05:26:00;;;;;;;16.23;4.43;;;;;;;4.54;100.00;101159.16;5046158;28;20486;-68
2024/02/16 05:28:26;;;;;;;8.70;4.82;;;;;;;4.62;100.00;101164.72;5046095;28;20056;-68
2024/02/16 05:30:52;;;;;;;12.80;4.97;;;;;;;4.53;100.00;101167.84;5044565;28;20454;-68
2024/02/16 05:33:17;;;;;;;7.38;2.67;;;;;;;4.59;100.00;101171.81;5049057;28;20091;-68
2024/02/16 05:35:44;;;;;;;11.00;5.72;;;;;;;4.62;100.00;101174.22;5036610;28;20046;-68
2024/02/16 05:38:20;;;;;;;9.88;5.50;;;;;;;4.58;100.00;101170.16;5047637;28;20025;-68
2024/02/16 05:40:56;;;;;;;6.70;2.35;;;;;;;4.70;100.00;101179.75;5044760;28;20040;-68
2024/02/16 05:43:23;;;;;;;6.97;1.92;;;;;;;4.81;100.00;101172.19;5048787;28;20134;-70
2024/02/16 05:45:49;;;;;;;2.45;1.02;;;;;;;4.85;100.00;101178.84;5042927;28;20473;-70
2024/02/16 05:48:15;;;;;;;1.80;0.73;;;;;;;4.98;100.00;101179.78;5044302;28;20026;-69
2024/02/16 05:50:40;;;;;;;1.73;0.45;;;;;;;5.09;100.00;101175.72;5040056;28;20036;-69
2024/02/16 05:53:07;;;;;;;2.40;0.70;;;;;;;5.14;100.00;101178.88;5047012;28;20087;-69
2024/02/16 05:55:32;;;;;;;5.75;1.15;;;;;;;5.15;100.00;101176.19;5052866;28;20431;-70
2024/02/16 05:57:58;;;;;;;6.30;1.27;;;;;;;5.17;100.00;101183.84;5054664;28;20135;-70
2024/02/16 06:00:23;;;;;;;16.95;5.97;;;;;;;5.00;100.00;101183.09;5055748;28;20032;-70
2024/02/16 06:02:49;;;;;;;16.15;2.00;;;;;;;4.96;100.00;101188.53;5051911;28;20055;-69
2024/02/16 06:05:14;;;;;;;3.17;1.17;;;;;;;5.03;100.00;101183.84;5048488;28;20032;-69
2024/02/16 06:07:40;;;;;;;3.63;0.82;;;;;;;5.02;100.00;101187.34;5048220;28;20029;-69
2024/02/16 06:10:10;;;;;;;3.30;0.80;;;;;;;5.02;100.00;101184.78;5038624;28;20032;-70
2024/02/16 06:12:39;;;;;;;6.72;1.17;;;;;;;5.09;100.00;101196.41;5047553;28;20033;-70
2024/02/16 06:15:05;;;;;;;3.00;0.55;;;;;;;5.26;99.79;101194.44;5044250;28;20021;-70
2024/02/16 06:17:31;;;;;;;7.13;1.40;;;;;;;5.35;98.39;101190.47;5044087;28;20032;-70
2024/02/16 06:19:56;;;;;;;3.35;1.23;;;;;;;5.38;98.17;101195.47;5052664;28;20025;-70
2024/02/16 06:22:22;;;;;;;3.92;0.88;;;;;;;5.38;97.94;101205.78;5047063;28;20064;-70
2024/02/16 06:24:47;;;;;;;2.08;0.85;;;;;;;5.30;99.35;101208.00;5042548;28;20029;-70
2024/02/16 06:27:13;;;;;;;2.38;0.98;;;;;;;5.24;99.47;101213.53;5042669;28;20372;-70
2024/02/16 06:29:38;;;;;;;3.28;1.08;;;;;;;5.21;99.90;101211.13;5043370;28;20064;-70
2024/02/16 06:32:04;;;;;;;3.35;1.10;;;;;;;5.14;100.00;101210.72;5049504;28;20098;-70
2024/02/16 06:34:30;;;;;;;2.58;0.82;;;;;;;5.09;100.00;101219.66;5051643;28;20045;-70
2024/02/16 06:36:56;;;;;;;1.85;0.63;;;;;;;5.07;100.00;101218.91;5049371;28;20028;-70
2024/02/16 06:39:22;;;;;;;1.67;0.60;;;;;;;5.06;100.00;101222.41;5048145;28;20028;-70
2024/02/16 06:41:49;;;;;;;1.38;0.65;;;;;;;5.08;100.00;101221.41;5049963;28;20025;-70
2024/02/16 06:44:15;;;;;;;3.03;1.17;;;;;;;5.14;99.89;101225.38;5043247;28;20125;-70
2024/02/16 06:46:41;;;;;;;2.88;0.57;;;;;;;5.14;100.00;101230.53;5047818;28;20025;-70
2024/02/16 06:49:07;;;;;;;5.90;1.00;;;;;;;5.13;100.00;101228.88;5046336;28;20461;-70
2024/02/16 06:51:33;;;;;;;4.85;0.80;;;;;;;5.16;99.96;101239.84;5051387;28;20119;-70
2024/02/16 06:53:58;;;;;;;5.90;0.88;;;;;;;5.21;99.70;101242.97;5047688;28;20120;-70
2024/02/16 06:56:24;;;;;;;3.17;0.88;;;;;;;5.22;99.51;101243.81;5049775;28;20121;-70
2024/02/16 06:58:49;;;;;;;2.83;0.70;;;;;;;5.19;99.19;101249.19;5042570;28;20075;-71
2024/02/16 07:01:17;;;;;;;1.90;0.80;;;;;;;5.20;100.00;101245.69;5051703;28;20095;-70
2024/02/16 07:03:43;;;;;;;5.88;1.00;;;;;;;5.27;99.61;101252.94;5045803;28;20478;-70
2024/02/16 07:06:13;;;;;;;6.43;0.50;;;;;;;5.38;99.15;101249.72;5050043;28;20032;-70
2024/02/16 07:08:41;;;;;;;2.15;0.70;;;;;;;5.38;99.11;101254.91;5049803;28;20076;-70
2024/02/16 07:11:07;;;;;;;3.47;1.42;;;;;;;5.30;99.13;101257.09;5050669;28;20486;-70
2024/02/16 07:13:37;;;;;;;2.38;1.02;;;;;;;5.24;99.73;101254.88;5050496;28;20090;-70
2024/02/16 07:16:03;;;;;;;2.75;1.00;;;;;;;5.23;99.32;101256.63;5045939;28;20053;-70
2024/02/16 07:18:30;;;;;;;4.68;0.80;;;;;;;5.26;99.18;101253.03;5046000;28;20029;-70
2024/02/16 07:20:56;;;;;;;2.25;0.43;;;;;;;5.32;99.59;101250.09;5049659;28;20033;-70
2024/02/16 07:23:22;;;;;;;9.35;1.30;;;;;;;5.42;98.61;101264.13;5050820;28;20598;-70
2024/02/16 07:25:48;;;;;;;6.70;1.08;;;;;;;5.51;97.90;101255.81;5042612;28;20033;-70
2024/02/16 07:28:14;;;;;;;4.05;1.10;;;;;;;5.56;96.79;101253.78;5050407;28;20036;-70
2024/02/16 07:30:40;;;;;;;3.88;1.02;;;;;;;5.61;97.58;101253.53;5050785;28;20040;-70
2024/02/16 07:33:07;;;;;;;2.20;0.60;;;;;;;5.63;96.66;101260.25;5043241;28;20033;-70
2024/02/16 07:35:35;;;;;;;2.60;0.70;;;;;;;5.66;96.93;101254.91;5039588;28;20056;-70
2024/02/16 07:38:00;;;;;;;4.43;0.80;;;;;;;5.77;96.88;101250.81;5040563;28;20060;-70
2024/02/16 07:40:25;;;;;;;10.15;1.25;;;;;;;5.84;95.21;101254.66;5041110;28;20063;-70
2024/02/16 07:42:51;;;;;;;2.83;0.55;;;;;;;5.87;94.73;101246.72;5050608;28;20029;-70
2024/02/16 07:45:16;;;;;;;4.15;0.80;;;;;;;5.88;94.91;101248.38;5044140;28;20040;-70
2024/02/16 07:47:42;;;;;;;2.60;0.93;;;;;;;5.94;94.27;101253.22;5045372;28;20405;-70
2024/02/16 07:50:08;;;;;;;2.63;0.82;;;;;;;6.01;93.84;101248.50;5043250;28;20025;-70
2024/02/16 07:52:33;;;;;;;4.35;0.45;;;;;;;6.08;92.94;101254.94;5050398;28;20029;-70
2024/02/16 07:54:59;;;;;;;2.15;0.85;;;;;;;6.14;93.24;101249.38;5045767;28;20032;-70
2024/02/16 07:57:25;;;;;;;5.57;0.52;;;;;;;6.22;93.20;101255.72;5047350;28;20078;-70
2024/02/16 07:59:50;;;;;;;1.85;0.82;;;;;;;6.31;92.51;101249.13;5046655;28;20037;-70
2024/02/16 08:02:17;;;;;;;2.40;0.75;;;;;;;6.39;92.76;101243.47;5049827;28;20429;-70
2024/02/16 08:04:47;;;;;;;2.63;0.90;;;;;;;6.45;93.94;101245.66;5049224;28;20044;-70
2024/02/16 08:07:13;;;;;;;1.60;0.50;;;;;;;6.52;91.74;101249.50;5050780;28;20047;-70
2024/02/16 08:09:39;;;;;;;1.52;0.50;;;;;;;6.59;90.70;101254.19;5033933;28;20033;-70
2024/02/16 08:12:06;;;;;;;3.28;0.77;;;;;;;6.68;90.83;101250.16;5041982;28;20048;-70
2024/02/16 08:14:33;;;;;;;3.13;0.82;;;;;;;6.78;91.33;101247.78;5049815;28;20029;-70
2024/02/16 08:16:58;;;;;;;4.15;0.70;;;;;;;6.80;91.43;101251.13;5038266;28;20029;-70
2024/02/16 08:19:33;;;;;;;4.00;1.40;;;;;;;6.90;91.78;101247.00;5046654;28;20077;-70
2024/02/16 08:21:58;;;;;;;3.72;1.83;;;;;;;7.01;91.85;101256.66;5045707;28;20486;-70
2024/02/16 08:24:24;;;;;;;7.13;1.63;;;;;;;7.06;90.66;101258.00;5045641;28;20035;-70
2024/02/16 08:26:49;;;;;;;5.07;1.55;;;;;;;7.16;89.48;101263.38;5038857;28;20051;-70
2024/02/16 08:29:14;;;;;;;3.88;1.23;;;;;;;7.25;88.62;101255.81;5049129;28;20039;-70
2024/02/16 08:31:40;;;;;;;4.35;1.08;;;;;;;7.35;88.27;101255.19;5045076;28;20037;-70
2024/02/16 08:34:07;;;;;;;4.07;0.80;;;;;;;7.48;87.83;101256.00;5050185;28;20047;-70
2024/02/16 08:36:33;;;;;;;2.72;0.82;;;;;;;7.61;87.46;101252.44;5046585;28;20379;-70
2024/02/16 08:38:59;;;;;;;1.83;0.52;;;;;;;7.67;87.98;101251.19;5030845;28;20514;-70
2024/02/16 08:41:24;;;;;;;2.75;1.05;;;;;;;7.84;86.78;101247.44;5042824;28;20107;-70
2024/02/16 08:43:50;;;;;;;1.58;0.50;;;;;;;7.91;87.01;101246.91;5043157;28;20446;-66
2024/02/16 08:46:16;;;;;;;1.25;0.65;;;;;;;7.97;85.15;101258.63;5038909;28;20082;-65
2024/02/16 08:48:44;;;;;;;2.47;0.88;;;;;;;8.11;85.75;101250.66;5043986;28;20037;-65
2024/02/16 08:51:09;;;;;;;4.25;1.17;;;;;;;8.13;85.64;101253.13;5049945;28;20040;-65
2024/02/16 08:53:36;;;;;;;2.67;0.75;;;;;;;8.21;84.47;101251.66;5046363;28;20025;-65
2024/02/16 08:56:01;;;;;;;3.10;0.50;;;;;;;8.26;85.54;101252.16;5049007;28;20041;-68
2024/02/16 08:58:26;;;;;;;1.80;0.60;;;;;;;8.37;84.91;101250.59;5044835;28;20063;-68
2024/02/16 09:00:52;;;;;;;1.75;0.60;;;;;;;8.49;82.08;101254.91;5044701;28;20550;-69
2024/02/16 09:03:17;;;;;;;2.67;0.70;;;;;;;8.60;83.73;101257.50;5045183;28;20439;-70
2024/02/16 09:05:45;;;;;;;2.40;0.85;;;;;;;8.61;83.49;101253.97;5038203;28;20526;-70
2024/02/16 09:08:11;;;;;;;2.80;0.80;;;;;;;8.74;82.87;101246.94;5049157;28;20082;-70
2024/02/16 09:10:37;;;;;;;6.10;0.95;;;;;;;8.75;82.42;101253.78;5045961;28;20040;-70
2024/02/16 09:13:02;;;;;;;1.77;0.50;;;;;;;8.87;83.57;101247.69;5049341;28;20029;-70
2024/02/16 09:15:28;;;;;;;6.22;0.68;;;;;;;8.87;82.39;101242.50;5050047;28;20040;-70
2024/02/16 09:17:53;;;;;;;1.98;0.60;;;;;;;8.89;83.80;101248.41;5042514;28;20055;-70
2024/02/16 09:20:22;;;;;;;3.75;0.77;;;;;;;9.02;83.28;101247.47;5048808;28;20025;-70
2024/02/16 09:22:48;;;;;;;3.10;0.50;;;;;;;9.16;80.59;101247.25;5035905;28;20060;-70
2024/02/16 09:25:14;;;;;;;2.90;0.73;;;;;;;9.20;84.97;101246.09;5042594;28;20033;-70
2024/02/16 09:27:44;;;;;;;1.85;0.60;;;;;;;9.12;84.35;101248.44;5041485;28;20037;-71
2024/02/16 09:30:11;;;;;;;1.33;0.50;;;;;;;9.11;86.32;101246.78;5047781;28;20029;-70
2024/02/16 09:32:40;;;;;;;1.33;0.40;;;;;;;9.20;86.41;101246.91;5045063;28;20064;-70
2024/02/16 09:35:05;;;;;;;2.33;0.40;;;;;;;9.27;85.30;101247.28;5046460;28;20041;-70
2024/02/16 09:37:31;;;;;;;2.30;0.50;;;;;;;9.45;81.50;101251.03;5044804;28;20040;-70
2024/02/16 09:39:56;;;;;;;2.88;0.50;;;;;;;9.46;85.01;101244.06;5047912;28;20031;-70
2024/02/16 09:42:26;;;;;;;3.10;0.82;;;;;;;9.47;87.14;101249.16;5048604;28;20029;-70
2024/02/16 09:44:54;;;;;;;2.33;0.60;;;;;;;9.50;87.65;101248.91;5045151;28;20036;-70
2024/02/16 09:47:22;;;;;;;2.58;0.40;;;;;;;9.52;85.44;101257.44;5040183;28;20034;-70
2024/02/16 09:49:48;;;;;;;1.80;0.50;;;;;;;9.59;87.15;101250.00;5038877;28;20037;-70
2024/02/16 09:52:14;;;;;;;3.17;0.70;;;;;;;9.76;86.06;101259.91;5052435;28;20079;-70
2024/02/16 09:54:39;;;;;;;1.13;0.43;;;;;;;9.78;87.22;101254.59;5045726;28;20052;-70
2024/02/16 09:57:05;;;;;;;1.42;0.43;;;;;;;9.63;86.96;101257.44;5046708;28;20092;-70
2024/02/16 09:59:32;;;;;;;1.88;0.40;;;;;;;9.68;87.95;101251.06;5039503;28;20033;-70
2024/02/16 10:02:07;;;;;;;1.88;0.43;;;;;;;9.63;88.28;101249.63;5050366;28;20408;-70
2024/02/16 10:04:32;;;;;;;3.60;0.40;;;;;;;9.64;89.03;101251.28;5046404;28;20042;-68
2024/02/16 10:06:58;;;;;;;5.15;0.40;;;;;;;9.68;90.01;101253.66;5042598;28;20036;-68
2024/02/16 10:09:32;;;;;;;1.40;0.60;;;;;;;9.79;85.93;101248.44;5043945;28;20033;-69
2024/02/16 10:11:57;;;;;;;5.90;0.57;;;;;;;10.09;84.92;101246.00;5041257;28;20495;-68
2024/02/16 10:14:24;;;;;;;3.90;0.60;;;;;;;10.18;84.94;101239.25;5049094;28;20032;-68
2024/02/16 10:17:00;;;;;;;2.63;0.50;;;;;;;10.20;86.08;101246.00;5042096;28;20038;-68
2024/02/16 10:19:26;;;;;;;1.23;0.65;;;;;;;10.19;87.28;101241.75;5038283;28;20056;-68
2024/02/16 10:21:51;;;;;;;1.30;0.57;;;;;;;10.18;87.62;101240.06;5050921;28;20466;-68
2024/02/16 10:24:21;;;;;;;3.20;0.80;;;;;;;10.15;88.33;101242.91;5041346;28;20371;-68
2024/02/16 10:26:47;;;;;;;2.42;0.65;;;;;;;10.03;88.54;101233.47;5042114;28;20036;-68
2024/02/16 10:29:21;;;;;;;1.67;0.68;;;;;;;10.00;88.34;101244.13;5039669;28;20124;-68
2024/02/16 10:31:47;;;;;;;1.30;0.60;;;;;;;10.07;88.99;101236.66;5048560;28;20037;-68
2024/02/16 10:34:13;;;;;;;2.28;0.88;;;;;;;10.17;88.57;101228.00;5039283;28;20092;-69
2024/02/16 10:36:41;;;;;;;2.10;0.60;;;;;;;10.20;89.11;101227.78;5044889;28;20060;-68
2024/02/16 10:39:08;;;;;;;4.75;0.88;;;;;;;10.23;84.85;101222.31;5044924;28;20119;-68
2024/02/16 10:41:35;;;;;;;2.03;0.70;;;;;;;10.43;87.14;101223.28;5039483;28;20168;-68
2024/02/16 10:44:05;;;;;;;3.65;1.08;;;;;;;10.52;87.25;101217.34;5051578;28;20527;-68
2024/02/16 10:46:31;;;;;;;6.82;1.52;;;;;;;10.61;87.89;101220.97;5039135;28;20033;-68
2024/02/16 10:48:57;;;;;;;4.80;1.33;;;;;;;10.54;88.77;101220.66;5043542;28;20029;-68
2024/02/16 10:51:38;;;;;;;5.05;1.50;;;;;;;10.52;88.20;101219.13;5039329;28;20029;-68
2024/02/16 10:54:04;;;;;;;4.18;1.50;;;;;;;10.50;89.19;101223.63;5035831;28;20032;-68
2024/02/16 10:56:34;;;;;;;3.80;1.08;;;;;;;10.38;89.36;101216.84;5039872;28;20033;-68
2024/02/16 10:59:04;;;;;;;4.07;1.13;;;;;;;10.37;87.53;101217.78;5046915;28;20070;-68
2024/02/16 11:01:37;;;;;;;2.30;0.93;;;;;;;10.45;88.06;101215.34;5047127;28;20065;-68
2024/02/16 11:04:10;;;;;;;3.88;0.80;;;;;;;10.50;87.83;101213.19;5038275;28;20546;-68
2024/02/16 11:07:18;;;;;;;5.35;0.95;;;;;;;10.47;79.67;101203.03;5040345;28;20162;-68
2024/02/16 11:09:45;;;;;;;2.75;0.98;;;;;;;10.52;85.95;101206.91;5045685;28;20262;-69
2024/02/16 11:12:15;;;;;;;2.03;0.70;;;;;;;10.61;87.40;101207.94;5050812;28;20029;-68
2024/02/16 11:14:45;;;;;;;3.88;0.95;;;;;;;10.78;86.25;101206.56;5051233;28;20474;-68
2024/02/16 11:17:15;;;;;;;2.78;1.17;;;;;;;10.83;87.24;101212.22;5039168;28;20116;-68
2024/02/16 11:19:45;;;;;;;3.35;1.30;;;;;;;10.87;86.93;101206.59;5042235;28;20083;-68
2024/02/16 11:22:11;;;;;;;3.88;1.58;;;;;;;10.91;85.26;101197.56;5050986;28;20036;-68
2024/02/16 11:24:43;;;;;;;5.05;1.67;;;;;;;11.02;86.79;101203.66;5045447;28;20554;-68